sensor_id;sensor_type;location;lat;lon;timestamp;temperature;humidity
14031;DHT22;7090;49.436;8.490;2022-12-07T00:00:18;5.00;99.90
14031;DHT22;7090;49.436;8.490;2022-12-07T00:02:44;5.00;99.90
14031;DHT22;7090;49.436;8.490;2022-12-07T00:05:09;5.00;99.90
14031;DHT22;7090;49.436;8.490;2022-12-07T00:07:35;4.90;99.90
14031;DHT22;7090;49.436;8.490;2022-12-07T00:10:00;4.80;99.90
14031;DHT22;7090;49.436;8.490;2022-12-07T00:12:26;4.80;99.90
14031;DHT22;7090;49.436;8.490;2022-12-07T00:14:52;4.80;99.90
14031;DHT22;7090;49.436;8.490;2022-12-07T00:17:17;4.70;99.90
14031;DHT22;7090;49.436;8.490;2022-12-07T00:19:43;4.70;99.90
14031;DHT22;7090;49.436;8.490;2022-12-07T00:22:08;4.70;99.90
14031;DHT22;7090;49.436;8.490;2022-12-07T00:24:34;4.70;99.90
14031;DHT22;7090;49.436;8.490;2022-12-07T00:26:59;4.60;99.90
14031;DHT22;7090;49.436;8.490;2022-12-07T00:29:25;4.60;99.90
14031;DHT22;7090;49.436;8.490;2022-12-07T00:31:50;4.60;99.90
14031;DHT22;7090;49.436;8.490;2022-12-07T00:34:20;4.70;99.90
14031;DHT22;7090;49.436;8.490;2022-12-07T00:36:46;4.70;99.90
14031;DHT22;7090;49.436;8.490;2022-12-07T00:39:12;4.70;99.90
14031;DHT22;7090;49.436;8.490;2022-12-07T00:41:37;4.70;99.90
14031;DHT22;7090;49.436;8.490;2022-12-07T00:44:03;4.70;99.90
14031;DHT22;7090;49.436;8.490;2022-12-07T00:46:29;4.70;99.90
14031;DHT22;7090;49.436;8.490;2022-12-07T00:48:55;4.70;99.90
14031;DHT22;7090;49.436;8.490;2022-12-07T00:51:23;4.70;99.90
14031;DHT22;7090;49.436;8.490;2022-12-07T00:53:49;4.60;99.90
14031;DHT22;7090;49.436;8.490;2022-12-07T00:56:21;4.60;99.90
14031;DHT22;7090;49.436;8.490;2022-12-07T00:59:01;4.60;99.90
14031;DHT22;7090;49.436;8.490;2022-12-07T01:01:29;4.70;99.90
14031;DHT22;7090;49.436;8.490;2022-12-07T01:03:55;4.70;99.90
14031;DHT22;7090;49.436;8.490;2022-12-07T01:06:22;4.60;99.90
14031;DHT22;7090;49.436;8.490;2022-12-07T01:08:49;4.60;99.90
14031;DHT22;7090;49.436;8.490;2022-12-07T01:11:18;4.50;99.90
14031;DHT22;7090;49.436;8.490;2022-12-07T01:13:44;4.60;99.90
14031;DHT22;7090;49.436;8.490;2022-12-07T01:16:13;4.60;99.90
14031;DHT22;7090;49.436;8.490;2022-12-07T01:18:39;4.60;99.90
14031;DHT22;7090;49.436;8.490;2022-12-07T01:21:16;4.50;99.90
14031;DHT22;7090;49.436;8.490;2022-12-07T01:23:43;4.60;99.90
14031;DHT22;7090;49.436;8.490;2022-12-07T01:26:14;4.60;99.90
14031;DHT22;7090;49.436;8.490;2022-12-07T01:28:40;4.60;99.90
14031;DHT22;7090;49.436;8.490;2022-12-07T01:31:09;4.50;99.90
14031;DHT22;7090;49.436;8.490;2022-12-07T01:33:40;4.50;99.90
14031;DHT22;7090;49.436;8.490;2022-12-07T01:36:20;4.50;99.90
14031;DHT22;7090;49.436;8.490;2022-12-07T01:38:47;4.50;99.90
14031;DHT22;7090;49.436;8.490;2022-12-07T01:41:14;4.40;99.90
14031;DHT22;7090;49.436;8.490;2022-12-07T01:46:37;4.40;99.90
14031;DHT22;7090;49.436;8.490;2022-12-07T01:49:06;4.40;99.90
14031;DHT22;7090;49.436;8.490;2022-12-07T01:51:33;4.40;99.90
14031;DHT22;7090;49.436;8.490;2022-12-07T01:54:00;4.40;99.90
14031;DHT22;7090;49.436;8.490;2022-12-07T01:56:27;4.40;99.90
14031;DHT22;7090;49.436;8.490;2022-12-07T01:58:55;4.40;99.90
14031;DHT22;7090;49.436;8.490;2022-12-07T02:01:21;4.40;99.90
14031;DHT22;7090;49.436;8.490;2022-12-07T02:03:48;4.50;99.90
14031;DHT22;7090;49.436;8.490;2022-12-07T02:06:18;4.50;99.90
14031;DHT22;7090;49.436;8.490;2022-12-07T02:08:45;4.50;99.90
14031;DHT22;7090;49.436;8.490;2022-12-07T02:11:11;4.50;99.90
14031;DHT22;7090;49.436;8.490;2022-12-07T02:13:39;4.50;99.90
14031;DHT22;7090;49.436;8.490;2022-12-07T02:19:04;4.40;99.90
14031;DHT22;7090;49.436;8.490;2022-12-07T02:25:08;4.30;99.90
14031;DHT22;7090;49.436;8.490;2022-12-07T02:27:49;4.30;99.90
14031;DHT22;7090;49.436;8.490;2022-12-07T02:30:19;4.30;99.90
14031;DHT22;7090;49.436;8.490;2022-12-07T02:32:59;4.30;99.90
14031;DHT22;7090;49.436;8.490;2022-12-07T02:35:48;4.30;99.90
14031;DHT22;7090;49.436;8.490;2022-12-07T02:38:20;4.30;99.90
14031;DHT22;7090;49.436;8.490;2022-12-07T02:40:57;4.20;99.90
14031;DHT22;7090;49.436;8.490;2022-12-07T02:43:31;4.10;99.90
14031;DHT22;7090;49.436;8.490;2022-12-07T02:46:03;4.10;99.90
14031;DHT22;7090;49.436;8.490;2022-12-07T02:48:31;3.90;99.90
14031;DHT22;7090;49.436;8.490;2022-12-07T02:50:58;3.90;99.90
14031;DHT22;7090;49.436;8.490;2022-12-07T02:59:09;3.80;99.90
14031;DHT22;7090;49.436;8.490;2022-12-07T03:07:37;4.00;99.90
14031;DHT22;7090;49.436;8.490;2022-12-07T03:13:07;4.10;99.90
14031;DHT22;7090;49.436;8.490;2022-12-07T03:18:24;4.20;99.90
14031;DHT22;7090;49.436;8.490;2022-12-07T03:20:53;4.20;99.90
14031;DHT22;7090;49.436;8.490;2022-12-07T03:23:21;4.10;99.90
14031;DHT22;7090;49.436;8.490;2022-12-07T03:25:52;4.20;99.90
14031;DHT22;7090;49.436;8.490;2022-12-07T03:28:22;4.10;99.90
14031;DHT22;7090;49.436;8.490;2022-12-07T03:30:52;4.10;99.90
14031;DHT22;7090;49.436;8.490;2022-12-07T03:33:27;4.10;99.90
14031;DHT22;7090;49.436;8.490;2022-12-07T03:36:17;4.10;99.90
14031;DHT22;7090;49.436;8.490;2022-12-07T03:38:49;4.10;99.90
14031;DHT22;7090;49.436;8.490;2022-12-07T03:41:28;4.20;99.90
14031;DHT22;7090;49.436;8.490;2022-12-07T03:43:55;4.10;99.90
14031;DHT22;7090;49.436;8.490;2022-12-07T03:54:23;4.10;99.90
14031;DHT22;7090;49.436;8.490;2022-12-07T03:56:50;4.10;99.90
14031;DHT22;7090;49.436;8.490;2022-12-07T03:59:17;4.10;99.90
14031;DHT22;7090;49.436;8.490;2022-12-07T04:01:44;4.10;99.90
14031;DHT22;7090;49.436;8.490;2022-12-07T04:04:11;4.10;99.90
14031;DHT22;7090;49.436;8.490;2022-12-07T04:06:36;4.10;99.90
14031;DHT22;7090;49.436;8.490;2022-12-07T04:09:02;4.20;99.90
14031;DHT22;7090;49.436;8.490;2022-12-07T04:11:28;4.20;99.90
14031;DHT22;7090;49.436;8.490;2022-12-07T04:13:53;4.20;99.90
14031;DHT22;7090;49.436;8.490;2022-12-07T04:16:38;4.30;99.90
14031;DHT22;7090;49.436;8.490;2022-12-07T04:19:03;4.30;99.90
14031;DHT22;7090;49.436;8.490;2022-12-07T04:21:29;4.30;99.90
14031;DHT22;7090;49.436;8.490;2022-12-07T04:23:54;4.30;99.90
14031;DHT22;7090;49.436;8.490;2022-12-07T04:26:20;4.30;99.90
14031;DHT22;7090;49.436;8.490;2022-12-07T04:28:45;4.30;99.90
14031;DHT22;7090;49.436;8.490;2022-12-07T04:31:11;4.30;99.90
14031;DHT22;7090;49.436;8.490;2022-12-07T04:33:36;4.40;99.90
14031;DHT22;7090;49.436;8.490;2022-12-07T04:36:02;4.40;99.90
14031;DHT22;7090;49.436;8.490;2022-12-07T04:38:28;4.40;99.90
14031;DHT22;7090;49.436;8.490;2022-12-07T04:40:53;4.40;99.90
14031;DHT22;7090;49.436;8.490;2022-12-07T04:43:19;4.40;99.90
14031;DHT22;7090;49.436;8.490;2022-12-07T04:45:48;4.40;99.90
14031;DHT22;7090;49.436;8.490;2022-12-07T04:48:14;4.40;99.90
14031;DHT22;7090;49.436;8.490;2022-12-07T04:50:40;4.40;99.90
14031;DHT22;7090;49.436;8.490;2022-12-07T04:53:05;4.40;99.90
14031;DHT22;7090;49.436;8.490;2022-12-07T04:55:31;4.40;99.90
14031;DHT22;7090;49.436;8.490;2022-12-07T04:57:56;4.30;99.90
14031;DHT22;7090;49.436;8.490;2022-12-07T05:00:22;4.30;99.90
14031;DHT22;7090;49.436;8.490;2022-12-07T05:02:48;4.20;99.90
14031;DHT22;7090;49.436;8.490;2022-12-07T05:05:13;4.10;99.90
14031;DHT22;7090;49.436;8.490;2022-12-07T05:07:39;4.10;99.90
14031;DHT22;7090;49.436;8.490;2022-12-07T05:10:05;4.10;99.90
14031;DHT22;7090;49.436;8.490;2022-12-07T05:12:31;4.10;99.90
14031;DHT22;7090;49.436;8.490;2022-12-07T05:14:56;4.10;99.90
14031;DHT22;7090;49.436;8.490;2022-12-07T05:17:22;4.10;99.90
14031;DHT22;7090;49.436;8.490;2022-12-07T05:19:47;4.10;99.90
14031;DHT22;7090;49.436;8.490;2022-12-07T05:22:13;4.10;99.90
14031;DHT22;7090;49.436;8.490;2022-12-07T05:24:39;4.10;99.90
14031;DHT22;7090;49.436;8.490;2022-12-07T05:27:05;4.10;99.90
14031;DHT22;7090;49.436;8.490;2022-12-07T05:29:30;4.10;99.90
14031;DHT22;7090;49.436;8.490;2022-12-07T05:31:56;4.10;99.90
14031;DHT22;7090;49.436;8.490;2022-12-07T05:34:21;4.10;99.90
14031;DHT22;7090;49.436;8.490;2022-12-07T05:36:47;4.10;99.90
14031;DHT22;7090;49.436;8.490;2022-12-07T05:39:12;4.10;99.90
14031;DHT22;7090;49.436;8.490;2022-12-07T05:41:38;4.00;99.90
14031;DHT22;7090;49.436;8.490;2022-12-07T05:44:22;4.00;99.90
14031;DHT22;7090;49.436;8.490;2022-12-07T05:46:47;4.10;99.90
14031;DHT22;7090;49.436;8.490;2022-12-07T05:49:13;4.10;99.90
14031;DHT22;7090;49.436;8.490;2022-12-07T05:51:39;4.10;99.90
14031;DHT22;7090;49.436;8.490;2022-12-07T05:54:04;4.00;99.90
14031;DHT22;7090;49.436;8.490;2022-12-07T05:56:30;4.00;99.90
14031;DHT22;7090;49.436;8.490;2022-12-07T05:58:55;4.00;99.90
14031;DHT22;7090;49.436;8.490;2022-12-07T06:01:39;4.00;99.90
14031;DHT22;7090;49.436;8.490;2022-12-07T06:04:05;4.00;99.90
14031;DHT22;7090;49.436;8.490;2022-12-07T06:06:31;4.10;99.90
14031;DHT22;7090;49.436;8.490;2022-12-07T06:08:56;4.10;99.90
14031;DHT22;7090;49.436;8.490;2022-12-07T06:11:22;4.10;99.90
14031;DHT22;7090;49.436;8.490;2022-12-07T06:14:06;4.10;99.90
14031;DHT22;7090;49.436;8.490;2022-12-07T06:16:31;4.20;99.90
14031;DHT22;7090;49.436;8.490;2022-12-07T06:18:57;4.20;99.90
14031;DHT22;7090;49.436;8.490;2022-12-07T06:21:22;4.10;99.90
14031;DHT22;7090;49.436;8.490;2022-12-07T06:23:48;4.10;99.90
14031;DHT22;7090;49.436;8.490;2022-12-07T06:26:14;4.00;99.90
14031;DHT22;7090;49.436;8.490;2022-12-07T06:28:39;4.10;99.90
14031;DHT22;7090;49.436;8.490;2022-12-07T06:31:06;4.10;99.90
14031;DHT22;7090;49.436;8.490;2022-12-07T06:33:32;4.20;99.90
14031;DHT22;7090;49.436;8.490;2022-12-07T06:35:58;4.40;99.90
14031;DHT22;7090;49.436;8.490;2022-12-07T06:38:23;4.40;99.90
14031;DHT22;7090;49.436;8.490;2022-12-07T06:40:50;4.40;99.90
14031;DHT22;7090;49.436;8.490;2022-12-07T06:43:15;4.40;99.90
14031;DHT22;7090;49.436;8.490;2022-12-07T06:45:41;4.40;99.90
14031;DHT22;7090;49.436;8.490;2022-12-07T06:48:07;4.40;99.90
14031;DHT22;7090;49.436;8.490;2022-12-07T06:50:33;4.40;99.90
14031;DHT22;7090;49.436;8.490;2022-12-07T06:52:58;4.40;99.90
14031;DHT22;7090;49.436;8.490;2022-12-07T06:55:24;4.40;99.90
14031;DHT22;7090;49.436;8.490;2022-12-07T06:57:49;4.50;99.90
14031;DHT22;7090;49.436;8.490;2022-12-07T07:00:15;4.50;99.90
14031;DHT22;7090;49.436;8.490;2022-12-07T07:02:41;4.40;99.90
14031;DHT22;7090;49.436;8.490;2022-12-07T07:05:07;4.40;99.90
14031;DHT22;7090;49.436;8.490;2022-12-07T07:07:33;4.40;99.90
14031;DHT22;7090;49.436;8.490;2022-12-07T07:09:58;4.40;99.90
14031;DHT22;7090;49.436;8.490;2022-12-07T07:12:24;4.40;99.90
14031;DHT22;7090;49.436;8.490;2022-12-07T07:14:49;4.40;99.90
14031;DHT22;7090;49.436;8.490;2022-12-07T07:17:15;4.40;99.90
14031;DHT22;7090;49.436;8.490;2022-12-07T07:19:40;4.40;99.90
14031;DHT22;7090;49.436;8.490;2022-12-07T07:22:06;4.40;99.90
14031;DHT22;7090;49.436;8.490;2022-12-07T07:24:31;4.40;99.90
14031;DHT22;7090;49.436;8.490;2022-12-07T07:26:57;4.50;99.90
14031;DHT22;7090;49.436;8.490;2022-12-07T07:29:23;4.50;99.90
14031;DHT22;7090;49.436;8.490;2022-12-07T07:31:48;4.50;99.90
14031;DHT22;7090;49.436;8.490;2022-12-07T07:34:14;4.40;99.90
14031;DHT22;7090;49.436;8.490;2022-12-07T07:36:39;4.40;99.90
14031;DHT22;7090;49.436;8.490;2022-12-07T07:39:05;4.50;99.90
14031;DHT22;7090;49.436;8.490;2022-12-07T07:41:31;4.40;99.90
14031;DHT22;7090;49.436;8.490;2022-12-07T07:43:56;4.50;99.90
14031;DHT22;7090;49.436;8.490;2022-12-07T07:46:22;4.50;99.90
14031;DHT22;7090;49.436;8.490;2022-12-07T07:48:48;4.50;99.90
14031;DHT22;7090;49.436;8.490;2022-12-07T07:51:13;4.60;99.90
14031;DHT22;7090;49.436;8.490;2022-12-07T07:53:39;4.60;99.90
14031;DHT22;7090;49.436;8.490;2022-12-07T07:56:05;4.60;99.90
14031;DHT22;7090;49.436;8.490;2022-12-07T07:58:30;4.60;99.90
14031;DHT22;7090;49.436;8.490;2022-12-07T08:00:56;4.60;99.90
14031;DHT22;7090;49.436;8.490;2022-12-07T08:03:21;4.70;99.90
14031;DHT22;7090;49.436;8.490;2022-12-07T08:05:47;4.70;99.90
14031;DHT22;7090;49.436;8.490;2022-12-07T08:08:12;4.80;99.90
14031;DHT22;7090;49.436;8.490;2022-12-07T08:10:38;4.80;99.90
14031;DHT22;7090;49.436;8.490;2022-12-07T08:13:04;4.80;99.90
14031;DHT22;7090;49.436;8.490;2022-12-07T08:15:41;4.80;99.90
14031;DHT22;7090;49.436;8.490;2022-12-07T08:18:07;4.80;99.90
14031;DHT22;7090;49.436;8.490;2022-12-07T08:20:34;4.90;99.90
14031;DHT22;7090;49.436;8.490;2022-12-07T08:23:00;4.90;99.90
14031;DHT22;7090;49.436;8.490;2022-12-07T08:25:27;4.90;99.90
14031;DHT22;7090;49.436;8.490;2022-12-07T08:27:53;4.90;99.90
14031;DHT22;7090;49.436;8.490;2022-12-07T08:30:19;4.90;99.90
14031;DHT22;7090;49.436;8.490;2022-12-07T08:32:45;4.80;99.90
14031;DHT22;7090;49.436;8.490;2022-12-07T08:35:12;4.80;99.90
14031;DHT22;7090;49.436;8.490;2022-12-07T08:37:38;4.90;99.90
14031;DHT22;7090;49.436;8.490;2022-12-07T08:40:08;4.90;99.90
14031;DHT22;7090;49.436;8.490;2022-12-07T08:42:34;4.90;99.90
14031;DHT22;7090;49.436;8.490;2022-12-07T08:45:07;4.90;99.90
14031;DHT22;7090;49.436;8.490;2022-12-07T08:47:39;5.00;99.90
14031;DHT22;7090;49.436;8.490;2022-12-07T08:50:07;5.10;99.90
14031;DHT22;7090;49.436;8.490;2022-12-07T08:52:34;5.20;99.90
14031;DHT22;7090;49.436;8.490;2022-12-07T08:55:00;5.20;99.90
14031;DHT22;7090;49.436;8.490;2022-12-07T08:57:27;5.20;99.90
14031;DHT22;7090;49.436;8.490;2022-12-07T08:59:53;5.30;99.90
14031;DHT22;7090;49.436;8.490;2022-12-07T09:02:19;5.30;99.90
14031;DHT22;7090;49.436;8.490;2022-12-07T09:04:44;5.30;99.90
14031;DHT22;7090;49.436;8.490;2022-12-07T09:07:10;5.30;99.90
14031;DHT22;7090;49.436;8.490;2022-12-07T09:09:36;5.30;99.90
14031;DHT22;7090;49.436;8.490;2022-12-07T09:12:02;5.30;99.90
14031;DHT22;7090;49.436;8.490;2022-12-07T09:14:27;5.30;99.90
14031;DHT22;7090;49.436;8.490;2022-12-07T09:16:53;5.30;99.90
14031;DHT22;7090;49.436;8.490;2022-12-07T09:19:19;5.30;99.90
14031;DHT22;7090;49.436;8.490;2022-12-07T09:21:44;5.20;99.90
14031;DHT22;7090;49.436;8.490;2022-12-07T09:24:12;5.20;99.90
14031;DHT22;7090;49.436;8.490;2022-12-07T09:26:37;5.20;99.90
14031;DHT22;7090;49.436;8.490;2022-12-07T09:29:04;5.20;99.90
14031;DHT22;7090;49.436;8.490;2022-12-07T09:31:30;5.30;99.90
14031;DHT22;7090;49.436;8.490;2022-12-07T09:33:57;5.30;99.90
14031;DHT22;7090;49.436;8.490;2022-12-07T09:36:23;5.30;99.90
14031;DHT22;7090;49.436;8.490;2022-12-07T09:38:48;5.30;99.90
14031;DHT22;7090;49.436;8.490;2022-12-07T09:41:14;5.30;99.90
14031;DHT22;7090;49.436;8.490;2022-12-07T09:43:41;5.30;99.90
14031;DHT22;7090;49.436;8.490;2022-12-07T09:46:13;5.40;99.90
14031;DHT22;7090;49.436;8.490;2022-12-07T09:48:42;5.50;99.90
14031;DHT22;7090;49.436;8.490;2022-12-07T09:51:22;5.50;99.90
14031;DHT22;7090;49.436;8.490;2022-12-07T09:53:48;5.60;99.90
14031;DHT22;7090;49.436;8.490;2022-12-07T09:56:16;5.60;99.90
14031;DHT22;7090;49.436;8.490;2022-12-07T09:58:42;5.70;99.90
14031;DHT22;7090;49.436;8.490;2022-12-07T10:03:38;5.80;99.90
14031;DHT22;7090;49.436;8.490;2022-12-07T10:06:05;5.90;99.90
14031;DHT22;7090;49.436;8.490;2022-12-07T10:08:31;5.90;99.90
14031;DHT22;7090;49.436;8.490;2022-12-07T10:10:57;5.90;99.90
14031;DHT22;7090;49.436;8.490;2022-12-07T10:13:35;6.00;99.90
14031;DHT22;7090;49.436;8.490;2022-12-07T10:16:02;6.20;99.90
14031;DHT22;7090;49.436;8.490;2022-12-07T10:18:37;6.20;99.90
14031;DHT22;7090;49.436;8.490;2022-12-07T10:21:15;6.40;99.90
14031;DHT22;7090;49.436;8.490;2022-12-07T10:23:59;6.30;99.90
14031;DHT22;7090;49.436;8.490;2022-12-07T10:29:37;6.50;99.90
14031;DHT22;7090;49.436;8.490;2022-12-07T10:34:30;6.60;99.90
14031;DHT22;7090;49.436;8.490;2022-12-07T10:39:58;6.50;99.90
14031;DHT22;7090;49.436;8.490;2022-12-07T10:42:26;6.70;99.90
14031;DHT22;7090;49.436;8.490;2022-12-07T10:45:13;6.70;99.90
14031;DHT22;7090;49.436;8.490;2022-12-07T10:50:47;6.80;99.90
14031;DHT22;7090;49.436;8.490;2022-12-07T11:07:08;7.00;99.90
14031;DHT22;7090;49.436;8.490;2022-12-07T11:15:24;6.90;99.90
14031;DHT22;7090;49.436;8.490;2022-12-07T11:17:59;6.90;99.90
14031;DHT22;7090;49.436;8.490;2022-12-07T11:20:44;7.00;99.90
14031;DHT22;7090;49.436;8.490;2022-12-07T11:29:23;7.20;99.90
14031;DHT22;7090;49.436;8.490;2022-12-07T11:34:46;7.00;99.90
14031;DHT22;7090;49.436;8.490;2022-12-07T11:37:19;7.10;99.90
14031;DHT22;7090;49.436;8.490;2022-12-07T11:39:54;7.00;99.90
14031;DHT22;7090;49.436;8.490;2022-12-07T11:42:30;6.90;99.90
14031;DHT22;7090;49.436;8.490;2022-12-07T11:45:04;6.90;99.90
14031;DHT22;7090;49.436;8.490;2022-12-07T11:56:06;7.10;99.90
14031;DHT22;7090;49.436;8.490;2022-12-07T12:06:38;6.90;99.90
14031;DHT22;7090;49.436;8.490;2022-12-07T12:09:06;6.80;99.90
14031;DHT22;7090;49.436;8.490;2022-12-07T12:17:49;6.90;99.90
14031;DHT22;7090;49.436;8.490;2022-12-07T12:22:53;7.50;99.90
14031;DHT22;7090;49.436;8.490;2022-12-07T12:25:31;8.00;99.90
14031;DHT22;7090;49.436;8.490;2022-12-07T12:28:00;8.30;99.90
14031;DHT22;7090;49.436;8.490;2022-12-07T12:33:06;8.80;1.00
14031;DHT22;7090;49.436;8.490;2022-12-07T12:35:38;8.20;1.00
14031;DHT22;7090;49.436;8.490;2022-12-07T12:38:31;8.20;1.00
14031;DHT22;7090;49.436;8.490;2022-12-07T12:40:57;8.40;1.00
14031;DHT22;7090;49.436;8.490;2022-12-07T12:43:46;8.50;1.00
14031;DHT22;7090;49.436;8.490;2022-12-07T12:46:50;8.40;99.90
14031;DHT22;7090;49.436;8.490;2022-12-07T12:56:51;8.00;99.90
14031;DHT22;7090;49.436;8.490;2022-12-07T13:01:48;7.90;1.00
14031;DHT22;7090;49.436;8.490;2022-12-07T13:04:25;7.80;1.00
14031;DHT22;7090;49.436;8.490;2022-12-07T13:06:52;7.70;1.00
14031;DHT22;7090;49.436;8.490;2022-12-07T13:09:25;7.70;99.90
14031;DHT22;7090;49.436;8.490;2022-12-07T13:12:15;7.60;99.90
14031;DHT22;7090;49.436;8.490;2022-12-07T13:14:52;7.60;99.90
14031;DHT22;7090;49.436;8.490;2022-12-07T13:20:00;7.10;1.00
14031;DHT22;7090;49.436;8.490;2022-12-07T13:27:27;6.80;1.00
14031;DHT22;7090;49.436;8.490;2022-12-07T13:29:54;6.80;1.00
14031;DHT22;7090;49.436;8.490;2022-12-07T13:32:27;6.80;23.20
14031;DHT22;7090;49.436;8.490;2022-12-07T13:34:53;6.80;99.90
14031;DHT22;7090;49.436;8.490;2022-12-07T13:37:28;6.80;1.00
14031;DHT22;7090;49.436;8.490;2022-12-07T13:39:59;6.70;99.90
14031;DHT22;7090;49.436;8.490;2022-12-07T13:42:29;6.80;99.90
14031;DHT22;7090;49.436;8.490;2022-12-07T13:44:56;6.90;99.90
14031;DHT22;7090;49.436;8.490;2022-12-07T13:47:32;6.90;99.90
14031;DHT22;7090;49.436;8.490;2022-12-07T13:50:00;6.90;63.00
14031;DHT22;7090;49.436;8.490;2022-12-07T13:52:27;6.90;12.30
14031;DHT22;7090;49.436;8.490;2022-12-07T13:54:59;6.80;1.00
14031;DHT22;7090;49.436;8.490;2022-12-07T13:57:28;6.70;25.60
14031;DHT22;7090;49.436;8.490;2022-12-07T13:59:56;6.70;99.90
14031;DHT22;7090;49.436;8.490;2022-12-07T14:04:49;6.80;99.90
14031;DHT22;7090;49.436;8.490;2022-12-07T14:07:25;6.70;99.90
14031;DHT22;7090;49.436;8.490;2022-12-07T14:10:33;6.70;1.00
14031;DHT22;7090;49.436;8.490;2022-12-07T14:13:01;6.80;1.00
14031;DHT22;7090;49.436;8.490;2022-12-07T14:15:34;6.80;1.00
14031;DHT22;7090;49.436;8.490;2022-12-07T14:18:02;6.80;1.00
14031;DHT22;7090;49.436;8.490;2022-12-07T14:20:38;6.70;1.00
14031;DHT22;7090;49.436;8.490;2022-12-07T14:23:19;6.70;1.00
14031;DHT22;7090;49.436;8.490;2022-12-07T14:25:51;6.70;1.00
14031;DHT22;7090;49.436;8.490;2022-12-07T14:28:32;6.70;1.00
14031;DHT22;7090;49.436;8.490;2022-12-07T14:30:58;6.70;1.00
14031;DHT22;7090;49.436;8.490;2022-12-07T14:33:24;6.70;1.00
14031;DHT22;7090;49.436;8.490;2022-12-07T14:35:50;6.70;1.00
14031;DHT22;7090;49.436;8.490;2022-12-07T14:38:20;6.70;1.00
14031;DHT22;7090;49.436;8.490;2022-12-07T14:40:47;6.70;1.00
14031;DHT22;7090;49.436;8.490;2022-12-07T14:43:15;6.70;1.00
14031;DHT22;7090;49.436;8.490;2022-12-07T14:45:42;6.60;1.00
14031;DHT22;7090;49.436;8.490;2022-12-07T14:48:11;6.40;1.00
14031;DHT22;7090;49.436;8.490;2022-12-07T14:50:40;6.30;1.00
14031;DHT22;7090;49.436;8.490;2022-12-07T14:53:15;6.30;1.00
14031;DHT22;7090;49.436;8.490;2022-12-07T14:55:41;6.30;1.00
14031;DHT22;7090;49.436;8.490;2022-12-07T14:58:15;6.30;1.00
14031;DHT22;7090;49.436;8.490;2022-12-07T15:00:42;6.40;1.00
14031;DHT22;7090;49.436;8.490;2022-12-07T15:03:08;6.30;1.00
14031;DHT22;7090;49.436;8.490;2022-12-07T15:05:34;6.30;1.00
14031;DHT22;7090;49.436;8.490;2022-12-07T15:08:00;6.30;1.00
14031;DHT22;7090;49.436;8.490;2022-12-07T15:10:30;6.30;1.00
14031;DHT22;7090;49.436;8.490;2022-12-07T15:12:58;6.30;1.00
14031;DHT22;7090;49.436;8.490;2022-12-07T15:15:43;6.30;1.00
14031;DHT22;7090;49.436;8.490;2022-12-07T15:18:09;6.30;1.00
14031;DHT22;7090;49.436;8.490;2022-12-07T15:20:35;6.30;1.00
14031;DHT22;7090;49.436;8.490;2022-12-07T15:23:00;6.20;1.00
14031;DHT22;7090;49.436;8.490;2022-12-07T15:25:26;6.20;1.00
14031;DHT22;7090;49.436;8.490;2022-12-07T15:27:51;6.20;1.00
14031;DHT22;7090;49.436;8.490;2022-12-07T15:30:17;6.20;1.00
14031;DHT22;7090;49.436;8.490;2022-12-07T15:32:42;6.20;1.00
14031;DHT22;7090;49.436;8.490;2022-12-07T15:35:08;6.20;1.00
14031;DHT22;7090;49.436;8.490;2022-12-07T15:37:34;6.20;1.00
14031;DHT22;7090;49.436;8.490;2022-12-07T15:39:59;6.10;1.00
14031;DHT22;7090;49.436;8.490;2022-12-07T15:42:25;6.10;1.00
14031;DHT22;7090;49.436;8.490;2022-12-07T15:44:51;6.10;1.00
14031;DHT22;7090;49.436;8.490;2022-12-07T15:50:03;6.10;1.00
14031;DHT22;7090;49.436;8.490;2022-12-07T15:52:29;6.10;1.00
14031;DHT22;7090;49.436;8.490;2022-12-07T15:54:55;6.10;1.00
14031;DHT22;7090;49.436;8.490;2022-12-07T15:57:21;6.00;1.00
14031;DHT22;7090;49.436;8.490;2022-12-07T15:59:46;6.00;1.00
14031;DHT22;7090;49.436;8.490;2022-12-07T16:02:12;6.00;1.00
14031;DHT22;7090;49.436;8.490;2022-12-07T16:04:38;6.00;1.00
14031;DHT22;7090;49.436;8.490;2022-12-07T16:07:03;6.00;1.00
14031;DHT22;7090;49.436;8.490;2022-12-07T16:09:29;6.00;1.00
14031;DHT22;7090;49.436;8.490;2022-12-07T16:11:55;5.90;1.00
14031;DHT22;7090;49.436;8.490;2022-12-07T16:14:21;5.90;1.00
14031;DHT22;7090;49.436;8.490;2022-12-07T16:16:47;5.90;1.00
14031;DHT22;7090;49.436;8.490;2022-12-07T16:19:13;5.90;1.00
14031;DHT22;7090;49.436;8.490;2022-12-07T16:21:39;5.90;1.00
14031;DHT22;7090;49.436;8.490;2022-12-07T16:24:05;5.90;1.00
14031;DHT22;7090;49.436;8.490;2022-12-07T16:26:31;5.90;1.00
14031;DHT22;7090;49.436;8.490;2022-12-07T16:28:57;5.90;1.00
14031;DHT22;7090;49.436;8.490;2022-12-07T16:31:24;5.80;1.00
14031;DHT22;7090;49.436;8.490;2022-12-07T16:33:53;5.90;1.00
14031;DHT22;7090;49.436;8.490;2022-12-07T16:36:19;5.80;1.00
14031;DHT22;7090;49.436;8.490;2022-12-07T16:38:46;5.80;1.00
14031;DHT22;7090;49.436;8.490;2022-12-07T16:41:12;5.70;1.00
14031;DHT22;7090;49.436;8.490;2022-12-07T16:43:38;5.70;1.00
14031;DHT22;7090;49.436;8.490;2022-12-07T16:46:04;5.70;1.00
14031;DHT22;7090;49.436;8.490;2022-12-07T16:48:29;5.70;1.00
14031;DHT22;7090;49.436;8.490;2022-12-07T16:50:55;5.60;1.00
14031;DHT22;7090;49.436;8.490;2022-12-07T16:53:23;5.60;1.00
14031;DHT22;7090;49.436;8.490;2022-12-07T16:55:50;5.60;1.00
14031;DHT22;7090;49.436;8.490;2022-12-07T16:58:17;5.60;1.00
14031;DHT22;7090;49.436;8.490;2022-12-07T17:00:43;5.60;1.00
14031;DHT22;7090;49.436;8.490;2022-12-07T17:03:10;5.50;1.00
14031;DHT22;7090;49.436;8.490;2022-12-07T17:05:40;5.50;1.00
14031;DHT22;7090;49.436;8.490;2022-12-07T17:08:07;5.50;1.00
14031;DHT22;7090;49.436;8.490;2022-12-07T17:10:37;5.50;1.00
14031;DHT22;7090;49.436;8.490;2022-12-07T17:13:04;5.50;1.00
14031;DHT22;7090;49.436;8.490;2022-12-07T17:16:01;5.50;1.00
14031;DHT22;7090;49.436;8.490;2022-12-07T17:18:29;5.40;1.00
14031;DHT22;7090;49.436;8.490;2022-12-07T17:20:55;5.40;2.90
14031;DHT22;7090;49.436;8.490;2022-12-07T17:23:21;5.40;38.30
14031;DHT22;7090;49.436;8.490;2022-12-07T17:25:47;5.40;34.60
14031;DHT22;7090;49.436;8.490;2022-12-07T17:28:13;5.40;61.00
14031;DHT22;7090;49.436;8.490;2022-12-07T17:30:39;5.30;91.90
14031;DHT22;7090;49.436;8.490;2022-12-07T17:33:04;5.30;99.90
14031;DHT22;7090;49.436;8.490;2022-12-07T17:35:30;5.30;99.90
14031;DHT22;7090;49.436;8.490;2022-12-07T17:37:55;5.30;99.90
14031;DHT22;7090;49.436;8.490;2022-12-07T17:40:21;5.20;99.90
14031;DHT22;7090;49.436;8.490;2022-12-07T17:42:47;5.20;99.90
14031;DHT22;7090;49.436;8.490;2022-12-07T17:45:16;5.20;99.90
14031;DHT22;7090;49.436;8.490;2022-12-07T17:47:42;5.20;99.90
14031;DHT22;7090;49.436;8.490;2022-12-07T17:50:09;5.20;99.90
14031;DHT22;7090;49.436;8.490;2022-12-07T17:52:38;5.20;99.90
14031;DHT22;7090;49.436;8.490;2022-12-07T17:55:23;5.20;99.90
14031;DHT22;7090;49.436;8.490;2022-12-07T17:57:48;5.20;99.90
14031;DHT22;7090;49.436;8.490;2022-12-07T18:00:14;5.20;99.90
14031;DHT22;7090;49.436;8.490;2022-12-07T18:02:40;5.20;99.90
14031;DHT22;7090;49.436;8.490;2022-12-07T18:05:06;5.10;99.90
14031;DHT22;7090;49.436;8.490;2022-12-07T18:07:32;4.90;99.90
14031;DHT22;7090;49.436;8.490;2022-12-07T18:09:57;5.10;99.90
14031;DHT22;7090;49.436;8.490;2022-12-07T18:12:23;5.10;99.90
14031;DHT22;7090;49.436;8.490;2022-12-07T18:14:49;5.00;99.90
14031;DHT22;7090;49.436;8.490;2022-12-07T18:17:16;5.00;99.90
14031;DHT22;7090;49.436;8.490;2022-12-07T18:19:42;5.00;99.90